Terminal Aerodrome Forecast
Issued by NWS

Home | Current Version | Previous Version | Text Only | Print | Product List | Glossary On
Versions: 1 2 3 4 5 6 7 8 9 10 11 12 13 14 15 16 17 18 19 20 21 22 23 24 25
000
FTUS42 KCAE 292300
TAFOGB
TAF
KOGB 292320Z 3000/3024 VRB03KT P6SM SCT250
     FM300600 20004KT P6SM BKN040
     FM301000 23005KT P6SM BKN080
     FM301500 24010G16KT P6SM VCSH SCT015 OVC050
     FM302200 29014KT P6SM SCT250=

USA.gov is the U.S. government's official web portal to all federal, state and local government web resources and services.